sensor_id;sensor_type;location;lat;lon;timestamp;temperature;humidity
75821;DHT22;64454;51.984;9.838;2023-04-08T00:01:50;10.60;1.00
75821;DHT22;64454;51.984;9.838;2023-04-08T00:04:18;10.70;1.00
75821;DHT22;64454;51.984;9.838;2023-04-08T00:06:45;10.60;1.00
75821;DHT22;64454;51.984;9.838;2023-04-08T00:09:12;10.70;1.00
75821;DHT22;64454;51.984;9.838;2023-04-08T00:11:40;10.60;1.00
75821;DHT22;64454;51.984;9.838;2023-04-08T00:14:07;10.60;1.00
75821;DHT22;64454;51.984;9.838;2023-04-08T00:16:36;10.60;1.00
75821;DHT22;64454;51.984;9.838;2023-04-08T00:19:03;10.70;1.00
75821;DHT22;64454;51.984;9.838;2023-04-08T00:21:31;10.70;1.00
75821;DHT22;64454;51.984;9.838;2023-04-08T00:23:58;10.70;1.00
75821;DHT22;64454;51.984;9.838;2023-04-08T00:26:24;10.70;1.00
75821;DHT22;64454;51.984;9.838;2023-04-08T00:28:51;10.70;1.00
75821;DHT22;64454;51.984;9.838;2023-04-08T00:31:18;10.70;1.00
75821;DHT22;64454;51.984;9.838;2023-04-08T00:33:47;10.70;1.00
75821;DHT22;64454;51.984;9.838;2023-04-08T00:36:14;10.70;1.00
75821;DHT22;64454;51.984;9.838;2023-04-08T00:38:41;10.70;1.00
75821;DHT22;64454;51.984;9.838;2023-04-08T00:41:08;10.60;1.00
75821;DHT22;64454;51.984;9.838;2023-04-08T00:43:35;10.60;1.00
75821;DHT22;64454;51.984;9.838;2023-04-08T00:46:02;10.50;1.00
75821;DHT22;64454;51.984;9.838;2023-04-08T00:48:30;10.60;1.00
75821;DHT22;64454;51.984;9.838;2023-04-08T00:50:59;10.50;1.00
75821;DHT22;64454;51.984;9.838;2023-04-08T00:53:26;10.50;1.00
75821;DHT22;64454;51.984;9.838;2023-04-08T00:55:53;10.40;1.00
75821;DHT22;64454;51.984;9.838;2023-04-08T00:58:20;10.40;1.00
75821;DHT22;64454;51.984;9.838;2023-04-08T01:00:57;10.40;1.00
75821;DHT22;64454;51.984;9.838;2023-04-08T01:03:36;10.30;1.00
75821;DHT22;64454;51.984;9.838;2023-04-08T01:06:17;10.30;1.00
75821;DHT22;64454;51.984;9.838;2023-04-08T01:08:52;10.30;1.00
75821;DHT22;64454;51.984;9.838;2023-04-08T01:11:19;10.30;1.00
75821;DHT22;64454;51.984;9.838;2023-04-08T01:13:48;10.40;1.00
75821;DHT22;64454;51.984;9.838;2023-04-08T01:16:18;10.30;1.00
75821;DHT22;64454;51.984;9.838;2023-04-08T01:18:49;10.40;1.00
75821;DHT22;64454;51.984;9.838;2023-04-08T01:21:19;10.40;1.00
75821;DHT22;64454;51.984;9.838;2023-04-08T01:23:55;10.30;1.00
75821;DHT22;64454;51.984;9.838;2023-04-08T01:26:29;10.20;1.00
75821;DHT22;64454;51.984;9.838;2023-04-08T01:28:58;10.20;1.00
75821;DHT22;64454;51.984;9.838;2023-04-08T01:31:27;10.20;1.00
75821;DHT22;64454;51.984;9.838;2023-04-08T01:33:56;10.10;1.00
75821;DHT22;64454;51.984;9.838;2023-04-08T01:36:27;10.10;1.00
75821;DHT22;64454;51.984;9.838;2023-04-08T01:38:57;9.90;1.00
75821;DHT22;64454;51.984;9.838;2023-04-08T01:41:26;9.90;1.00
75821;DHT22;64454;51.984;9.838;2023-04-08T01:43:56;9.90;1.00
75821;DHT22;64454;51.984;9.838;2023-04-08T01:46:24;9.90;1.00
75821;DHT22;64454;51.984;9.838;2023-04-08T01:48:53;9.90;1.00
75821;DHT22;64454;51.984;9.838;2023-04-08T01:51:21;9.90;1.00
75821;DHT22;64454;51.984;9.838;2023-04-08T01:53:49;10.00;1.00
75821;DHT22;64454;51.984;9.838;2023-04-08T01:56:16;10.00;1.00
75821;DHT22;64454;51.984;9.838;2023-04-08T01:58:50;10.00;1.00
75821;DHT22;64454;51.984;9.838;2023-04-08T02:01:22;9.90;1.00
75821;DHT22;64454;51.984;9.838;2023-04-08T02:03:52;9.90;1.00
75821;DHT22;64454;51.984;9.838;2023-04-08T02:06:25;9.90;1.00
75821;DHT22;64454;51.984;9.838;2023-04-08T02:08:54;9.90;1.00
75821;DHT22;64454;51.984;9.838;2023-04-08T02:11:21;9.80;1.00
75821;DHT22;64454;51.984;9.838;2023-04-08T02:13:49;9.80;1.00
75821;DHT22;64454;51.984;9.838;2023-04-08T02:16:21;9.80;1.00
75821;DHT22;64454;51.984;9.838;2023-04-08T02:18:54;9.90;1.00
75821;DHT22;64454;51.984;9.838;2023-04-08T02:21:26;9.90;1.00
75821;DHT22;64454;51.984;9.838;2023-04-08T02:24:09;10.00;1.00
75821;DHT22;64454;51.984;9.838;2023-04-08T02:26:42;10.00;1.00
75821;DHT22;64454;51.984;9.838;2023-04-08T02:29:12;10.00;1.00
75821;DHT22;64454;51.984;9.838;2023-04-08T02:31:44;9.90;1.00
75821;DHT22;64454;51.984;9.838;2023-04-08T02:34:13;9.80;1.00
75821;DHT22;64454;51.984;9.838;2023-04-08T02:36:41;9.80;1.00
75821;DHT22;64454;51.984;9.838;2023-04-08T02:39:10;9.80;1.00
75821;DHT22;64454;51.984;9.838;2023-04-08T02:41:38;9.80;1.00
75821;DHT22;64454;51.984;9.838;2023-04-08T02:44:05;9.70;1.00
75821;DHT22;64454;51.984;9.838;2023-04-08T02:46:32;9.70;1.00
75821;DHT22;64454;51.984;9.838;2023-04-08T02:49:00;9.70;1.00
75821;DHT22;64454;51.984;9.838;2023-04-08T02:51:27;9.70;1.00
75821;DHT22;64454;51.984;9.838;2023-04-08T02:53:54;9.80;1.00
75821;DHT22;64454;51.984;9.838;2023-04-08T02:56:21;9.80;1.00
75821;DHT22;64454;51.984;9.838;2023-04-08T02:58:47;9.80;1.00
75821;DHT22;64454;51.984;9.838;2023-04-08T03:01:16;9.80;1.00
75821;DHT22;64454;51.984;9.838;2023-04-08T03:03:44;9.90;1.00
75821;DHT22;64454;51.984;9.838;2023-04-08T03:06:12;9.90;1.00
75821;DHT22;64454;51.984;9.838;2023-04-08T03:08:39;9.80;1.00
75821;DHT22;64454;51.984;9.838;2023-04-08T03:11:05;9.80;1.00
75821;DHT22;64454;51.984;9.838;2023-04-08T03:13:32;9.80;1.00
75821;DHT22;64454;51.984;9.838;2023-04-08T03:16:00;9.80;1.00
75821;DHT22;64454;51.984;9.838;2023-04-08T03:18:27;9.90;1.00
75821;DHT22;64454;51.984;9.838;2023-04-08T03:20:53;9.90;1.00
75821;DHT22;64454;51.984;9.838;2023-04-08T03:23:22;9.80;1.00
75821;DHT22;64454;51.984;9.838;2023-04-08T03:25:48;9.90;1.00
75821;DHT22;64454;51.984;9.838;2023-04-08T03:28:15;10.00;1.00
75821;DHT22;64454;51.984;9.838;2023-04-08T03:30:42;10.00;1.00
75821;DHT22;64454;51.984;9.838;2023-04-08T03:33:09;10.00;1.00
75821;DHT22;64454;51.984;9.838;2023-04-08T03:35:36;9.90;1.00
75821;DHT22;64454;51.984;9.838;2023-04-08T03:38:04;9.90;1.00
75821;DHT22;64454;51.984;9.838;2023-04-08T03:40:32;9.80;1.00
75821;DHT22;64454;51.984;9.838;2023-04-08T03:42:59;9.60;1.00
75821;DHT22;64454;51.984;9.838;2023-04-08T03:45:27;9.50;1.00
75821;DHT22;64454;51.984;9.838;2023-04-08T03:47:54;9.50;1.00
75821;DHT22;64454;51.984;9.838;2023-04-08T03:50:21;9.50;1.00
75821;DHT22;64454;51.984;9.838;2023-04-08T03:52:48;9.60;1.00
75821;DHT22;64454;51.984;9.838;2023-04-08T03:55:15;9.60;1.00
75821;DHT22;64454;51.984;9.838;2023-04-08T03:57:44;9.60;1.00
75821;DHT22;64454;51.984;9.838;2023-04-08T04:00:12;9.60;1.00
75821;DHT22;64454;51.984;9.838;2023-04-08T04:02:39;9.50;1.00
75821;DHT22;64454;51.984;9.838;2023-04-08T04:05:07;9.40;1.00
75821;DHT22;64454;51.984;9.838;2023-04-08T04:07:34;9.40;1.00
75821;DHT22;64454;51.984;9.838;2023-04-08T04:10:01;9.30;1.00
75821;DHT22;64454;51.984;9.838;2023-04-08T04:12:28;9.30;1.00
75821;DHT22;64454;51.984;9.838;2023-04-08T04:14:56;9.20;1.00
75821;DHT22;64454;51.984;9.838;2023-04-08T04:17:23;9.00;1.00
75821;DHT22;64454;51.984;9.838;2023-04-08T04:19:50;9.00;1.00
75821;DHT22;64454;51.984;9.838;2023-04-08T04:22:17;9.00;1.00
75821;DHT22;64454;51.984;9.838;2023-04-08T04:24:46;9.00;1.00
75821;DHT22;64454;51.984;9.838;2023-04-08T04:27:13;9.00;1.00
75821;DHT22;64454;51.984;9.838;2023-04-08T04:29:42;9.10;1.00
75821;DHT22;64454;51.984;9.838;2023-04-08T04:32:10;9.20;1.00
75821;DHT22;64454;51.984;9.838;2023-04-08T04:34:37;9.10;1.00
75821;DHT22;64454;51.984;9.838;2023-04-08T04:37:04;9.10;1.00
75821;DHT22;64454;51.984;9.838;2023-04-08T04:39:31;9.00;1.00
75821;DHT22;64454;51.984;9.838;2023-04-08T04:41:57;9.10;1.00
75821;DHT22;64454;51.984;9.838;2023-04-08T04:44:24;9.10;1.00
75821;DHT22;64454;51.984;9.838;2023-04-08T04:46:51;9.20;1.00
75821;DHT22;64454;51.984;9.838;2023-04-08T04:49:22;9.20;1.00
75821;DHT22;64454;51.984;9.838;2023-04-08T04:51:49;9.30;1.00
75821;DHT22;64454;51.984;9.838;2023-04-08T04:54:18;9.20;1.00
75821;DHT22;64454;51.984;9.838;2023-04-08T04:56:46;9.20;1.00
75821;DHT22;64454;51.984;9.838;2023-04-08T04:59:12;9.10;1.00
75821;DHT22;64454;51.984;9.838;2023-04-08T05:01:40;9.10;1.00
75821;DHT22;64454;51.984;9.838;2023-04-08T05:04:06;9.10;1.00
75821;DHT22;64454;51.984;9.838;2023-04-08T05:06:54;9.10;1.00
75821;DHT22;64454;51.984;9.838;2023-04-08T05:09:41;9.30;1.70
75821;DHT22;64454;51.984;9.838;2023-04-08T05:12:28;9.30;1.00
75821;DHT22;64454;51.984;9.838;2023-04-08T05:15:16;9.20;1.00
75821;DHT22;64454;51.984;9.838;2023-04-08T05:18:03;9.20;1.00
75821;DHT22;64454;51.984;9.838;2023-04-08T05:20:30;9.20;1.00
75821;DHT22;64454;51.984;9.838;2023-04-08T05:22:58;9.20;1.00
75821;DHT22;64454;51.984;9.838;2023-04-08T05:25:25;9.30;1.00
75821;DHT22;64454;51.984;9.838;2023-04-08T05:27:52;9.30;1.00
75821;DHT22;64454;51.984;9.838;2023-04-08T05:30:19;9.30;1.00
75821;DHT22;64454;51.984;9.838;2023-04-08T05:32:46;9.30;1.00
75821;DHT22;64454;51.984;9.838;2023-04-08T05:35:13;9.30;1.00
75821;DHT22;64454;51.984;9.838;2023-04-08T05:37:40;9.10;1.00
75821;DHT22;64454;51.984;9.838;2023-04-08T05:40:09;9.00;16.20
75821;DHT22;64454;51.984;9.838;2023-04-08T05:42:36;9.00;20.50
75821;DHT22;64454;51.984;9.838;2023-04-08T05:45:04;9.10;29.60
75821;DHT22;64454;51.984;9.838;2023-04-08T05:47:32;9.20;25.50
75821;DHT22;64454;51.984;9.838;2023-04-08T05:49:59;9.20;16.10
75821;DHT22;64454;51.984;9.838;2023-04-08T05:52:25;9.20;17.70
75821;DHT22;64454;51.984;9.838;2023-04-08T05:54:52;9.20;14.20
75821;DHT22;64454;51.984;9.838;2023-04-08T05:57:20;9.10;19.00
75821;DHT22;64454;51.984;9.838;2023-04-08T05:59:47;9.00;21.30
75821;DHT22;64454;51.984;9.838;2023-04-08T06:02:14;9.10;26.50
75821;DHT22;64454;51.984;9.838;2023-04-08T06:04:41;9.10;23.60
75821;DHT22;64454;51.984;9.838;2023-04-08T06:07:08;9.20;22.20
75821;DHT22;64454;51.984;9.838;2023-04-08T06:09:35;9.30;23.40
75821;DHT22;64454;51.984;9.838;2023-04-08T06:12:02;9.30;20.70
75821;DHT22;64454;51.984;9.838;2023-04-08T06:14:31;9.40;16.60
75821;DHT22;64454;51.984;9.838;2023-04-08T06:16:58;9.50;12.80
75821;DHT22;64454;51.984;9.838;2023-04-08T06:19:25;9.40;9.10
75821;DHT22;64454;51.984;9.838;2023-04-08T06:21:51;9.50;9.90
75821;DHT22;64454;51.984;9.838;2023-04-08T06:24:23;9.50;7.70
75821;DHT22;64454;51.984;9.838;2023-04-08T06:26:51;9.40;7.70
75821;DHT22;64454;51.984;9.838;2023-04-08T06:29:19;9.40;14.70
75821;DHT22;64454;51.984;9.838;2023-04-08T06:31:48;9.50;13.10
75821;DHT22;64454;51.984;9.838;2023-04-08T06:34:17;9.40;12.30
75821;DHT22;64454;51.984;9.838;2023-04-08T06:36:45;9.30;15.30
75821;DHT22;64454;51.984;9.838;2023-04-08T06:39:13;9.30;16.80
75821;DHT22;64454;51.984;9.838;2023-04-08T06:41:41;9.30;20.40
75821;DHT22;64454;51.984;9.838;2023-04-08T06:44:08;9.30;21.60
75821;DHT22;64454;51.984;9.838;2023-04-08T06:46:35;9.20;20.10
75821;DHT22;64454;51.984;9.838;2023-04-08T06:49:04;9.20;28.50
75821;DHT22;64454;51.984;9.838;2023-04-08T06:51:31;9.20;27.00
75821;DHT22;64454;51.984;9.838;2023-04-08T06:53:58;9.20;34.40
75821;DHT22;64454;51.984;9.838;2023-04-08T06:56:25;9.30;33.20
75821;DHT22;64454;51.984;9.838;2023-04-08T06:58:52;9.30;26.70
75821;DHT22;64454;51.984;9.838;2023-04-08T07:01:18;9.40;25.90
75821;DHT22;64454;51.984;9.838;2023-04-08T07:03:46;9.50;20.00
75821;DHT22;64454;51.984;9.838;2023-04-08T07:06:14;9.40;16.80
75821;DHT22;64454;51.984;9.838;2023-04-08T07:08:41;9.40;21.60
75821;DHT22;64454;51.984;9.838;2023-04-08T07:11:08;9.50;22.80
75821;DHT22;64454;51.984;9.838;2023-04-08T07:13:35;9.60;18.60
75821;DHT22;64454;51.984;9.838;2023-04-08T07:16:02;9.50;16.40
75821;DHT22;64454;51.984;9.838;2023-04-08T07:18:30;9.60;18.60
75821;DHT22;64454;51.984;9.838;2023-04-08T07:20:57;9.60;15.40
75821;DHT22;64454;51.984;9.838;2023-04-08T07:23:26;9.60;9.40
75821;DHT22;64454;51.984;9.838;2023-04-08T07:25:53;9.60;11.50
75821;DHT22;64454;51.984;9.838;2023-04-08T07:28:20;9.70;10.80
75821;DHT22;64454;51.984;9.838;2023-04-08T07:30:47;9.80;8.20
75821;DHT22;64454;51.984;9.838;2023-04-08T07:33:14;9.90;11.70
75821;DHT22;64454;51.984;9.838;2023-04-08T07:35:41;9.90;1.00
75821;DHT22;64454;51.984;9.838;2023-04-08T07:38:07;9.90;1.00
75821;DHT22;64454;51.984;9.838;2023-04-08T07:40:37;9.90;1.00
75821;DHT22;64454;51.984;9.838;2023-04-08T07:43:04;9.90;1.00
75821;DHT22;64454;51.984;9.838;2023-04-08T07:45:31;10.00;1.00
75821;DHT22;64454;51.984;9.838;2023-04-08T07:47:58;10.00;1.00
75821;DHT22;64454;51.984;9.838;2023-04-08T07:50:24;9.90;1.00
75821;DHT22;64454;51.984;9.838;2023-04-08T07:52:51;9.90;1.00
75821;DHT22;64454;51.984;9.838;2023-04-08T07:55:19;10.00;1.00
75821;DHT22;64454;51.984;9.838;2023-04-08T07:57:47;10.10;1.00
75821;DHT22;64454;51.984;9.838;2023-04-08T08:00:14;10.10;1.00
75821;DHT22;64454;51.984;9.838;2023-04-08T08:02:45;10.20;1.00
75821;DHT22;64454;51.984;9.838;2023-04-08T08:05:13;10.20;1.00
75821;DHT22;64454;51.984;9.838;2023-04-08T08:07:40;10.20;1.00
75821;DHT22;64454;51.984;9.838;2023-04-08T08:10:07;10.30;1.00
75821;DHT22;64454;51.984;9.838;2023-04-08T08:12:35;10.30;1.00
75821;DHT22;64454;51.984;9.838;2023-04-08T08:15:04;10.20;1.00
75821;DHT22;64454;51.984;9.838;2023-04-08T08:17:31;10.30;1.00
75821;DHT22;64454;51.984;9.838;2023-04-08T08:19:58;10.30;1.00
75821;DHT22;64454;51.984;9.838;2023-04-08T08:22:26;10.10;1.00
75821;DHT22;64454;51.984;9.838;2023-04-08T08:24:55;10.30;1.00
75821;DHT22;64454;51.984;9.838;2023-04-08T08:27:22;10.30;1.00
75821;DHT22;64454;51.984;9.838;2023-04-08T08:29:49;10.30;1.00
75821;DHT22;64454;51.984;9.838;2023-04-08T08:32:18;10.20;1.00
75821;DHT22;64454;51.984;9.838;2023-04-08T08:34:45;10.20;1.00
75821;DHT22;64454;51.984;9.838;2023-04-08T08:37:11;10.30;1.00
75821;DHT22;64454;51.984;9.838;2023-04-08T08:39:38;10.30;1.00
75821;DHT22;64454;51.984;9.838;2023-04-08T08:42:05;10.40;1.00
75821;DHT22;64454;51.984;9.838;2023-04-08T08:44:33;10.40;1.00
75821;DHT22;64454;51.984;9.838;2023-04-08T08:47:00;10.50;1.00
75821;DHT22;64454;51.984;9.838;2023-04-08T08:49:28;10.40;1.00
75821;DHT22;64454;51.984;9.838;2023-04-08T08:51:56;10.20;1.00
75821;DHT22;64454;51.984;9.838;2023-04-08T08:54:24;10.20;1.00
75821;DHT22;64454;51.984;9.838;2023-04-08T08:56:52;10.10;1.00
75821;DHT22;64454;51.984;9.838;2023-04-08T08:59:20;10.20;1.00
75821;DHT22;64454;51.984;9.838;2023-04-08T09:01:47;10.10;1.00
75821;DHT22;64454;51.984;9.838;2023-04-08T09:04:15;10.20;1.00
75821;DHT22;64454;51.984;9.838;2023-04-08T09:06:46;10.20;1.00
75821;DHT22;64454;51.984;9.838;2023-04-08T09:09:15;10.30;1.00
75821;DHT22;64454;51.984;9.838;2023-04-08T09:11:45;10.30;1.00
75821;DHT22;64454;51.984;9.838;2023-04-08T09:14:21;10.30;1.00
75821;DHT22;64454;51.984;9.838;2023-04-08T09:16:49;10.40;1.00
75821;DHT22;64454;51.984;9.838;2023-04-08T09:19:17;10.40;1.00
75821;DHT22;64454;51.984;9.838;2023-04-08T09:22:03;10.40;1.00
75821;DHT22;64454;51.984;9.838;2023-04-08T09:24:31;10.50;1.00
75821;DHT22;64454;51.984;9.838;2023-04-08T09:26:59;10.60;1.00
75821;DHT22;64454;51.984;9.838;2023-04-08T09:29:26;10.60;1.00
75821;DHT22;64454;51.984;9.838;2023-04-08T09:31:53;10.80;1.00
75821;DHT22;64454;51.984;9.838;2023-04-08T09:34:21;10.80;1.00
75821;DHT22;64454;51.984;9.838;2023-04-08T09:36:50;10.90;1.00
75821;DHT22;64454;51.984;9.838;2023-04-08T09:39:19;10.90;1.00
75821;DHT22;64454;51.984;9.838;2023-04-08T09:41:48;11.00;1.00
75821;DHT22;64454;51.984;9.838;2023-04-08T09:44:18;11.00;1.00
75821;DHT22;64454;51.984;9.838;2023-04-08T09:46:55;10.90;1.00
75821;DHT22;64454;51.984;9.838;2023-04-08T09:49:28;11.00;1.00
75821;DHT22;64454;51.984;9.838;2023-04-08T09:52:06;10.90;1.00
75821;DHT22;64454;51.984;9.838;2023-04-08T09:54:41;11.00;1.00
75821;DHT22;64454;51.984;9.838;2023-04-08T09:57:15;11.10;1.00
75821;DHT22;64454;51.984;9.838;2023-04-08T09:59:51;11.00;1.00
75821;DHT22;64454;51.984;9.838;2023-04-08T10:02:29;10.90;1.00
75821;DHT22;64454;51.984;9.838;2023-04-08T10:05:02;11.00;1.00
75821;DHT22;64454;51.984;9.838;2023-04-08T10:07:33;11.10;1.00
75821;DHT22;64454;51.984;9.838;2023-04-08T10:10:01;11.20;1.00
75821;DHT22;64454;51.984;9.838;2023-04-08T10:12:28;11.00;1.00
75821;DHT22;64454;51.984;9.838;2023-04-08T10:15:23;11.00;1.00
75821;DHT22;64454;51.984;9.838;2023-04-08T10:17:52;11.10;1.00
75821;DHT22;64454;51.984;9.838;2023-04-08T10:20:41;11.00;1.00
75821;DHT22;64454;51.984;9.838;2023-04-08T10:23:11;10.90;1.00
75821;DHT22;64454;51.984;9.838;2023-04-08T10:25:39;11.00;1.00
75821;DHT22;64454;51.984;9.838;2023-04-08T10:28:23;11.10;1.00
75821;DHT22;64454;51.984;9.838;2023-04-08T10:30:51;11.10;1.00
75821;DHT22;64454;51.984;9.838;2023-04-08T10:33:21;11.10;1.00
75821;DHT22;64454;51.984;9.838;2023-04-08T10:35:53;11.20;1.00
75821;DHT22;64454;51.984;9.838;2023-04-08T10:38:22;11.20;1.00
75821;DHT22;64454;51.984;9.838;2023-04-08T10:40:49;11.20;1.00
75821;DHT22;64454;51.984;9.838;2023-04-08T10:43:17;11.30;1.00
75821;DHT22;64454;51.984;9.838;2023-04-08T10:45:44;11.20;1.00
75821;DHT22;64454;51.984;9.838;2023-04-08T10:48:18;11.10;1.00
75821;DHT22;64454;51.984;9.838;2023-04-08T10:50:53;11.20;1.00
75821;DHT22;64454;51.984;9.838;2023-04-08T10:53:30;11.30;1.00
75821;DHT22;64454;51.984;9.838;2023-04-08T10:56:05;11.20;1.00
75821;DHT22;64454;51.984;9.838;2023-04-08T10:58:33;11.20;1.00
75821;DHT22;64454;51.984;9.838;2023-04-08T11:01:04;11.00;1.00
75821;DHT22;64454;51.984;9.838;2023-04-08T11:03:33;11.00;1.00
75821;DHT22;64454;51.984;9.838;2023-04-08T11:06:01;11.00;1.00
75821;DHT22;64454;51.984;9.838;2023-04-08T11:08:30;11.00;1.00
75821;DHT22;64454;51.984;9.838;2023-04-08T11:10:58;10.90;1.00
75821;DHT22;64454;51.984;9.838;2023-04-08T11:13:26;10.90;1.00
75821;DHT22;64454;51.984;9.838;2023-04-08T11:15:54;11.00;1.00
75821;DHT22;64454;51.984;9.838;2023-04-08T11:18:22;10.90;1.00
75821;DHT22;64454;51.984;9.838;2023-04-08T11:20:49;10.90;1.00
75821;DHT22;64454;51.984;9.838;2023-04-08T11:23:17;10.90;1.00
75821;DHT22;64454;51.984;9.838;2023-04-08T11:25:46;10.70;1.00
75821;DHT22;64454;51.984;9.838;2023-04-08T11:28:13;10.80;1.00
75821;DHT22;64454;51.984;9.838;2023-04-08T11:30:42;10.80;1.00
75821;DHT22;64454;51.984;9.838;2023-04-08T11:33:09;10.90;1.00
75821;DHT22;64454;51.984;9.838;2023-04-08T11:35:39;10.90;1.00
75821;DHT22;64454;51.984;9.838;2023-04-08T11:38:07;11.00;1.00
75821;DHT22;64454;51.984;9.838;2023-04-08T11:40:35;11.00;1.00
75821;DHT22;64454;51.984;9.838;2023-04-08T11:43:12;11.00;1.00
75821;DHT22;64454;51.984;9.838;2023-04-08T11:45:40;11.00;1.00
75821;DHT22;64454;51.984;9.838;2023-04-08T11:48:08;11.00;1.00
75821;DHT22;64454;51.984;9.838;2023-04-08T11:50:36;11.00;1.00
75821;DHT22;64454;51.984;9.838;2023-04-08T11:53:03;11.00;1.00
75821;DHT22;64454;51.984;9.838;2023-04-08T11:55:31;11.00;1.00
75821;DHT22;64454;51.984;9.838;2023-04-08T11:58:02;10.90;1.00
75821;DHT22;64454;51.984;9.838;2023-04-08T12:00:32;11.00;1.00
75821;DHT22;64454;51.984;9.838;2023-04-08T12:02:58;11.00;1.00
75821;DHT22;64454;51.984;9.838;2023-04-08T12:05:25;10.90;1.00
75821;DHT22;64454;51.984;9.838;2023-04-08T12:07:52;11.20;1.00
75821;DHT22;64454;51.984;9.838;2023-04-08T12:10:19;11.20;1.00
75821;DHT22;64454;51.984;9.838;2023-04-08T12:12:46;11.20;1.00
75821;DHT22;64454;51.984;9.838;2023-04-08T12:15:13;11.30;1.00
75821;DHT22;64454;51.984;9.838;2023-04-08T12:17:41;11.30;1.00
75821;DHT22;64454;51.984;9.838;2023-04-08T12:20:10;11.50;1.00
75821;DHT22;64454;51.984;9.838;2023-04-08T12:22:37;11.70;1.00
75821;DHT22;64454;51.984;9.838;2023-04-08T12:25:05;11.80;1.00
75821;DHT22;64454;51.984;9.838;2023-04-08T12:27:32;12.00;1.00
75821;DHT22;64454;51.984;9.838;2023-04-08T12:29:59;12.00;1.00
75821;DHT22;64454;51.984;9.838;2023-04-08T12:32:27;12.00;1.00
75821;DHT22;64454;51.984;9.838;2023-04-08T12:34:55;12.00;1.00
75821;DHT22;64454;51.984;9.838;2023-04-08T12:37:22;12.10;1.00
75821;DHT22;64454;51.984;9.838;2023-04-08T12:39:48;12.00;1.00
75821;DHT22;64454;51.984;9.838;2023-04-08T12:42:16;12.00;1.00
75821;DHT22;64454;51.984;9.838;2023-04-08T12:44:42;11.90;1.00
75821;DHT22;64454;51.984;9.838;2023-04-08T12:47:09;12.10;1.00
75821;DHT22;64454;51.984;9.838;2023-04-08T12:49:36;12.00;1.00
75821;DHT22;64454;51.984;9.838;2023-04-08T12:52:04;12.10;1.00
75821;DHT22;64454;51.984;9.838;2023-04-08T12:54:31;12.00;1.00
75821;DHT22;64454;51.984;9.838;2023-04-08T12:56:58;12.10;1.00
75821;DHT22;64454;51.984;9.838;2023-04-08T12:59:25;12.20;1.00
75821;DHT22;64454;51.984;9.838;2023-04-08T13:01:52;12.10;1.00
75821;DHT22;64454;51.984;9.838;2023-04-08T13:04:20;12.20;1.00
75821;DHT22;64454;51.984;9.838;2023-04-08T13:06:47;12.20;1.00
75821;DHT22;64454;51.984;9.838;2023-04-08T13:09:16;12.20;1.00
75821;DHT22;64454;51.984;9.838;2023-04-08T13:11:45;12.20;1.00
75821;DHT22;64454;51.984;9.838;2023-04-08T13:14:12;12.10;1.00
75821;DHT22;64454;51.984;9.838;2023-04-08T13:16:40;12.10;1.00
75821;DHT22;64454;51.984;9.838;2023-04-08T13:19:07;12.00;1.00
75821;DHT22;64454;51.984;9.838;2023-04-08T13:21:34;11.80;1.00
75821;DHT22;64454;51.984;9.838;2023-04-08T13:24:01;11.80;1.00
75821;DHT22;64454;51.984;9.838;2023-04-08T13:26:29;11.80;1.00
75821;DHT22;64454;51.984;9.838;2023-04-08T13:28:56;11.90;1.00
75821;DHT22;64454;51.984;9.838;2023-04-08T13:31:23;11.90;1.00
75821;DHT22;64454;51.984;9.838;2023-04-08T13:33:50;11.80;1.00
75821;DHT22;64454;51.984;9.838;2023-04-08T13:36:17;11.80;1.00
75821;DHT22;64454;51.984;9.838;2023-04-08T13:38:44;11.70;1.00
75821;DHT22;64454;51.984;9.838;2023-04-08T13:41:11;11.70;1.00
75821;DHT22;64454;51.984;9.838;2023-04-08T13:43:39;11.80;1.00
75821;DHT22;64454;51.984;9.838;2023-04-08T13:46:06;11.90;1.00
75821;DHT22;64454;51.984;9.838;2023-04-08T13:48:33;11.90;1.00
75821;DHT22;64454;51.984;9.838;2023-04-08T13:51:00;12.00;1.00
75821;DHT22;64454;51.984;9.838;2023-04-08T13:53:27;12.00;1.00
75821;DHT22;64454;51.984;9.838;2023-04-08T13:55:54;12.00;1.00
75821;DHT22;64454;51.984;9.838;2023-04-08T13:58:23;12.10;1.00
75821;DHT22;64454;51.984;9.838;2023-04-08T14:00:51;12.10;1.00
75821;DHT22;64454;51.984;9.838;2023-04-08T14:03:18;12.10;1.00
75821;DHT22;64454;51.984;9.838;2023-04-08T14:05:45;12.10;1.00
75821;DHT22;64454;51.984;9.838;2023-04-08T14:08:12;12.10;1.00
75821;DHT22;64454;51.984;9.838;2023-04-08T14:10:39;12.00;1.00
75821;DHT22;64454;51.984;9.838;2023-04-08T14:13:06;11.80;1.00
75821;DHT22;64454;51.984;9.838;2023-04-08T14:15:33;11.70;1.00
75821;DHT22;64454;51.984;9.838;2023-04-08T14:18:01;11.80;1.00
75821;DHT22;64454;51.984;9.838;2023-04-08T14:20:29;11.80;1.00
75821;DHT22;64454;51.984;9.838;2023-04-08T14:22:56;11.90;1.00
75821;DHT22;64454;51.984;9.838;2023-04-08T14:25:23;11.90;1.00
75821;DHT22;64454;51.984;9.838;2023-04-08T14:27:50;12.00;1.00
75821;DHT22;64454;51.984;9.838;2023-04-08T14:30:17;12.00;1.00
75821;DHT22;64454;51.984;9.838;2023-04-08T14:32:44;12.00;1.00
75821;DHT22;64454;51.984;9.838;2023-04-08T14:35:12;12.10;1.00
75821;DHT22;64454;51.984;9.838;2023-04-08T14:37:39;12.10;1.00
75821;DHT22;64454;51.984;9.838;2023-04-08T14:40:07;12.20;1.00
75821;DHT22;64454;51.984;9.838;2023-04-08T14:42:35;12.20;1.00
75821;DHT22;64454;51.984;9.838;2023-04-08T14:45:02;12.00;1.00
75821;DHT22;64454;51.984;9.838;2023-04-08T14:47:29;12.00;1.00
75821;DHT22;64454;51.984;9.838;2023-04-08T14:49:56;12.00;1.00
75821;DHT22;64454;51.984;9.838;2023-04-08T14:52:24;11.90;1.00
75821;DHT22;64454;51.984;9.838;2023-04-08T14:54:51;12.00;1.00
75821;DHT22;64454;51.984;9.838;2023-04-08T14:57:18;11.90;1.00
75821;DHT22;64454;51.984;9.838;2023-04-08T14:59:45;12.00;1.00
75821;DHT22;64454;51.984;9.838;2023-04-08T15:02:12;12.10;1.00
75821;DHT22;64454;51.984;9.838;2023-04-08T15:04:39;12.20;1.00
75821;DHT22;64454;51.984;9.838;2023-04-08T15:07:06;12.20;1.00
75821;DHT22;64454;51.984;9.838;2023-04-08T15:09:34;12.00;1.00
75821;DHT22;64454;51.984;9.838;2023-04-08T15:12:01;12.10;1.00
75821;DHT22;64454;51.984;9.838;2023-04-08T15:14:28;12.20;1.00
75821;DHT22;64454;51.984;9.838;2023-04-08T15:16:55;12.30;1.00
75821;DHT22;64454;51.984;9.838;2023-04-08T15:19:21;12.20;1.00
75821;DHT22;64454;51.984;9.838;2023-04-08T15:21:48;12.20;1.00
75821;DHT22;64454;51.984;9.838;2023-04-08T15:24:16;12.10;1.00
75821;DHT22;64454;51.984;9.838;2023-04-08T15:26:46;12.10;1.00
75821;DHT22;64454;51.984;9.838;2023-04-08T15:29:14;12.20;1.00
75821;DHT22;64454;51.984;9.838;2023-04-08T15:31:42;12.20;1.00
75821;DHT22;64454;51.984;9.838;2023-04-08T15:34:09;12.20;1.00
75821;DHT22;64454;51.984;9.838;2023-04-08T15:36:36;12.10;1.00
75821;DHT22;64454;51.984;9.838;2023-04-08T15:39:04;12.10;1.00
75821;DHT22;64454;51.984;9.838;2023-04-08T15:41:31;12.10;1.00
75821;DHT22;64454;51.984;9.838;2023-04-08T15:43:59;12.10;1.00
75821;DHT22;64454;51.984;9.838;2023-04-08T15:46:26;12.10;1.00
75821;DHT22;64454;51.984;9.838;2023-04-08T15:48:53;12.20;1.00
75821;DHT22;64454;51.984;9.838;2023-04-08T15:51:20;12.20;1.00
75821;DHT22;64454;51.984;9.838;2023-04-08T15:53:47;12.20;1.00
75821;DHT22;64454;51.984;9.838;2023-04-08T15:56:15;12.20;1.00
75821;DHT22;64454;51.984;9.838;2023-04-08T15:58:42;12.30;1.00